sensor_id;sensor_type;location;lat;lon;timestamp;temperature;humidity
29363;DHT22;16349;53.672;10.014;2023-11-21T00:00:57;8.50;99.90
29363;DHT22;16349;53.672;10.014;2023-11-21T00:03:25;8.50;99.90
29363;DHT22;16349;53.672;10.014;2023-11-21T00:05:53;8.50;99.90
29363;DHT22;16349;53.672;10.014;2023-11-21T00:08:20;8.50;99.90
29363;DHT22;16349;53.672;10.014;2023-11-21T00:10:47;8.40;99.90
29363;DHT22;16349;53.672;10.014;2023-11-21T00:13:14;8.40;99.90
29363;DHT22;16349;53.672;10.014;2023-11-21T00:15:41;8.30;99.90
29363;DHT22;16349;53.672;10.014;2023-11-21T00:18:08;8.20;99.90
29363;DHT22;16349;53.672;10.014;2023-11-21T00:20:37;8.20;99.90
29363;DHT22;16349;53.672;10.014;2023-11-21T00:23:03;8.20;99.90
29363;DHT22;16349;53.672;10.014;2023-11-21T00:25:30;8.00;99.90
29363;DHT22;16349;53.672;10.014;2023-11-21T00:27:57;8.10;99.90
29363;DHT22;16349;53.672;10.014;2023-11-21T00:30:25;8.10;99.90
29363;DHT22;16349;53.672;10.014;2023-11-21T00:32:51;8.00;99.90
29363;DHT22;16349;53.672;10.014;2023-11-21T00:35:18;7.90;99.90
29363;DHT22;16349;53.672;10.014;2023-11-21T00:37:47;7.90;99.90
29363;DHT22;16349;53.672;10.014;2023-11-21T00:40:15;7.90;99.90
29363;DHT22;16349;53.672;10.014;2023-11-21T00:42:44;7.90;99.90
29363;DHT22;16349;53.672;10.014;2023-11-21T00:45:12;7.90;99.90
29363;DHT22;16349;53.672;10.014;2023-11-21T00:47:39;7.90;99.90
29363;DHT22;16349;53.672;10.014;2023-11-21T00:50:07;7.90;99.90
29363;DHT22;16349;53.672;10.014;2023-11-21T00:52:34;7.80;99.90
29363;DHT22;16349;53.672;10.014;2023-11-21T00:55:03;7.80;99.90
29363;DHT22;16349;53.672;10.014;2023-11-21T00:57:30;7.70;99.90
29363;DHT22;16349;53.672;10.014;2023-11-21T00:59:57;7.70;99.90
29363;DHT22;16349;53.672;10.014;2023-11-21T01:02:24;7.70;99.90
29363;DHT22;16349;53.672;10.014;2023-11-21T01:04:51;7.70;99.90
29363;DHT22;16349;53.672;10.014;2023-11-21T01:07:18;7.70;99.90
29363;DHT22;16349;53.672;10.014;2023-11-21T01:09:45;7.70;99.90
29363;DHT22;16349;53.672;10.014;2023-11-21T01:12:14;7.70;99.90
29363;DHT22;16349;53.672;10.014;2023-11-21T01:14:43;7.70;99.90
29363;DHT22;16349;53.672;10.014;2023-11-21T01:17:11;7.60;99.90
29363;DHT22;16349;53.672;10.014;2023-11-21T01:19:38;7.60;99.90
29363;DHT22;16349;53.672;10.014;2023-11-21T01:22:05;7.60;99.90
29363;DHT22;16349;53.672;10.014;2023-11-21T01:24:32;7.60;99.90
29363;DHT22;16349;53.672;10.014;2023-11-21T01:26:58;7.60;99.90
29363;DHT22;16349;53.672;10.014;2023-11-21T01:29:26;7.60;99.90
29363;DHT22;16349;53.672;10.014;2023-11-21T01:31:53;7.60;99.90
29363;DHT22;16349;53.672;10.014;2023-11-21T01:34:20;7.60;99.90
29363;DHT22;16349;53.672;10.014;2023-11-21T01:36:47;7.60;99.90
29363;DHT22;16349;53.672;10.014;2023-11-21T01:39:14;7.50;99.90
29363;DHT22;16349;53.672;10.014;2023-11-21T01:41:41;7.50;99.90
29363;DHT22;16349;53.672;10.014;2023-11-21T01:44:09;7.50;99.90
29363;DHT22;16349;53.672;10.014;2023-11-21T01:46:38;7.50;99.90
29363;DHT22;16349;53.672;10.014;2023-11-21T01:49:05;7.50;99.90
29363;DHT22;16349;53.672;10.014;2023-11-21T01:51:32;7.50;99.90
29363;DHT22;16349;53.672;10.014;2023-11-21T01:54:02;7.40;99.90
29363;DHT22;16349;53.672;10.014;2023-11-21T01:56:30;7.40;99.90
29363;DHT22;16349;53.672;10.014;2023-11-21T01:58:57;7.50;99.90
29363;DHT22;16349;53.672;10.014;2023-11-21T02:01:24;7.40;99.90
29363;DHT22;16349;53.672;10.014;2023-11-21T02:03:54;7.30;99.90
29363;DHT22;16349;53.672;10.014;2023-11-21T02:06:21;7.30;99.90
29363;DHT22;16349;53.672;10.014;2023-11-21T02:08:49;7.40;99.90
29363;DHT22;16349;53.672;10.014;2023-11-21T02:11:16;7.30;99.90
29363;DHT22;16349;53.672;10.014;2023-11-21T02:13:46;7.30;99.90
29363;DHT22;16349;53.672;10.014;2023-11-21T02:16:15;7.30;99.90
29363;DHT22;16349;53.672;10.014;2023-11-21T02:18:42;7.30;99.90
29363;DHT22;16349;53.672;10.014;2023-11-21T02:21:11;7.30;99.90
29363;DHT22;16349;53.672;10.014;2023-11-21T02:23:39;7.30;99.90
29363;DHT22;16349;53.672;10.014;2023-11-21T02:26:10;7.30;99.90
29363;DHT22;16349;53.672;10.014;2023-11-21T02:28:36;7.30;99.90
29363;DHT22;16349;53.672;10.014;2023-11-21T02:31:04;7.30;99.90
29363;DHT22;16349;53.672;10.014;2023-11-21T02:33:33;7.30;99.90
29363;DHT22;16349;53.672;10.014;2023-11-21T02:36:00;7.20;99.90
29363;DHT22;16349;53.672;10.014;2023-11-21T02:38:27;7.20;99.90
29363;DHT22;16349;53.672;10.014;2023-11-21T02:40:57;7.20;99.90
29363;DHT22;16349;53.672;10.014;2023-11-21T02:43:24;7.20;99.90
29363;DHT22;16349;53.672;10.014;2023-11-21T02:45:51;7.20;99.90
29363;DHT22;16349;53.672;10.014;2023-11-21T02:48:18;7.10;99.90
29363;DHT22;16349;53.672;10.014;2023-11-21T02:50:45;7.10;99.90
29363;DHT22;16349;53.672;10.014;2023-11-21T02:53:13;7.10;99.90
29363;DHT22;16349;53.672;10.014;2023-11-21T02:55:41;7.10;99.90
29363;DHT22;16349;53.672;10.014;2023-11-21T02:58:09;7.10;99.90
29363;DHT22;16349;53.672;10.014;2023-11-21T03:00:36;7.10;99.90
29363;DHT22;16349;53.672;10.014;2023-11-21T03:03:05;7.10;99.90
29363;DHT22;16349;53.672;10.014;2023-11-21T03:05:31;7.10;99.90
29363;DHT22;16349;53.672;10.014;2023-11-21T03:08:01;7.00;99.90
29363;DHT22;16349;53.672;10.014;2023-11-21T03:10:27;7.00;99.90
29363;DHT22;16349;53.672;10.014;2023-11-21T03:12:55;7.00;99.90
29363;DHT22;16349;53.672;10.014;2023-11-21T03:15:24;7.00;99.90
29363;DHT22;16349;53.672;10.014;2023-11-21T03:17:51;6.90;99.90
29363;DHT22;16349;53.672;10.014;2023-11-21T03:20:18;7.00;99.90
29363;DHT22;16349;53.672;10.014;2023-11-21T03:22:44;6.90;99.90
29363;DHT22;16349;53.672;10.014;2023-11-21T03:25:11;6.90;99.90
29363;DHT22;16349;53.672;10.014;2023-11-21T03:27:38;6.90;99.90
29363;DHT22;16349;53.672;10.014;2023-11-21T03:30:08;6.90;99.90
29363;DHT22;16349;53.672;10.014;2023-11-21T03:32:37;6.90;99.90
29363;DHT22;16349;53.672;10.014;2023-11-21T03:35:05;6.90;99.90
29363;DHT22;16349;53.672;10.014;2023-11-21T03:37:32;6.90;99.90
29363;DHT22;16349;53.672;10.014;2023-11-21T03:39:58;6.80;99.90
29363;DHT22;16349;53.672;10.014;2023-11-21T03:42:25;6.90;99.90
29363;DHT22;16349;53.672;10.014;2023-11-21T03:44:52;6.90;99.90
29363;DHT22;16349;53.672;10.014;2023-11-21T03:47:20;6.90;99.90
29363;DHT22;16349;53.672;10.014;2023-11-21T03:49:48;6.90;99.90
29363;DHT22;16349;53.672;10.014;2023-11-21T03:52:15;6.90;99.90
29363;DHT22;16349;53.672;10.014;2023-11-21T03:54:42;6.90;99.90
29363;DHT22;16349;53.672;10.014;2023-11-21T03:57:09;6.90;99.90
29363;DHT22;16349;53.672;10.014;2023-11-21T03:59:36;7.00;99.90
29363;DHT22;16349;53.672;10.014;2023-11-21T04:02:06;6.90;99.90
29363;DHT22;16349;53.672;10.014;2023-11-21T04:04:33;7.00;99.90
29363;DHT22;16349;53.672;10.014;2023-11-21T04:07:01;6.90;99.90
29363;DHT22;16349;53.672;10.014;2023-11-21T04:09:28;6.90;99.90
29363;DHT22;16349;53.672;10.014;2023-11-21T04:11:55;6.90;99.90
29363;DHT22;16349;53.672;10.014;2023-11-21T04:14:22;6.90;99.90
29363;DHT22;16349;53.672;10.014;2023-11-21T04:16:49;6.90;99.90
29363;DHT22;16349;53.672;10.014;2023-11-21T04:19:16;6.90;99.90
29363;DHT22;16349;53.672;10.014;2023-11-21T04:21:42;6.90;99.90
29363;DHT22;16349;53.672;10.014;2023-11-21T04:24:11;6.90;99.90
29363;DHT22;16349;53.672;10.014;2023-11-21T04:26:37;6.90;99.90
29363;DHT22;16349;53.672;10.014;2023-11-21T04:29:04;6.90;99.90
29363;DHT22;16349;53.672;10.014;2023-11-21T04:31:31;6.90;99.90
29363;DHT22;16349;53.672;10.014;2023-11-21T04:33:58;6.90;99.90
29363;DHT22;16349;53.672;10.014;2023-11-21T04:36:25;6.90;99.90
29363;DHT22;16349;53.672;10.014;2023-11-21T04:38:52;6.90;99.90
29363;DHT22;16349;53.672;10.014;2023-11-21T04:41:20;6.90;99.90
29363;DHT22;16349;53.672;10.014;2023-11-21T04:43:47;6.90;99.90
29363;DHT22;16349;53.672;10.014;2023-11-21T04:46:14;6.90;99.90
29363;DHT22;16349;53.672;10.014;2023-11-21T04:48:41;6.90;99.90
29363;DHT22;16349;53.672;10.014;2023-11-21T04:51:09;6.90;99.90
29363;DHT22;16349;53.672;10.014;2023-11-21T04:53:37;6.90;99.90
29363;DHT22;16349;53.672;10.014;2023-11-21T04:56:05;6.90;99.90
29363;DHT22;16349;53.672;10.014;2023-11-21T04:58:33;6.90;99.90
29363;DHT22;16349;53.672;10.014;2023-11-21T05:01:01;6.90;99.90
29363;DHT22;16349;53.672;10.014;2023-11-21T05:03:28;6.90;99.90
29363;DHT22;16349;53.672;10.014;2023-11-21T05:05:55;6.80;99.90
29363;DHT22;16349;53.672;10.014;2023-11-21T05:08:23;6.90;99.90
29363;DHT22;16349;53.672;10.014;2023-11-21T05:10:51;6.80;99.90
29363;DHT22;16349;53.672;10.014;2023-11-21T05:13:19;6.90;99.90
29363;DHT22;16349;53.672;10.014;2023-11-21T05:15:47;6.80;99.90
29363;DHT22;16349;53.672;10.014;2023-11-21T05:18:14;6.90;99.90
29363;DHT22;16349;53.672;10.014;2023-11-21T05:20:41;6.90;99.90
29363;DHT22;16349;53.672;10.014;2023-11-21T05:23:07;6.90;99.90
29363;DHT22;16349;53.672;10.014;2023-11-21T05:25:34;6.90;99.90
29363;DHT22;16349;53.672;10.014;2023-11-21T05:28:01;6.90;99.90
29363;DHT22;16349;53.672;10.014;2023-11-21T05:30:29;6.90;99.90
29363;DHT22;16349;53.672;10.014;2023-11-21T05:32:57;6.90;99.90
29363;DHT22;16349;53.672;10.014;2023-11-21T05:35:24;6.90;99.90
29363;DHT22;16349;53.672;10.014;2023-11-21T05:37:52;6.90;99.90
29363;DHT22;16349;53.672;10.014;2023-11-21T05:40:19;6.90;99.90
29363;DHT22;16349;53.672;10.014;2023-11-21T05:42:47;6.90;99.90
29363;DHT22;16349;53.672;10.014;2023-11-21T05:45:14;6.90;99.90
29363;DHT22;16349;53.672;10.014;2023-11-21T05:47:44;6.90;99.90
29363;DHT22;16349;53.672;10.014;2023-11-21T05:50:14;6.90;99.90
29363;DHT22;16349;53.672;10.014;2023-11-21T05:52:42;6.90;99.90
29363;DHT22;16349;53.672;10.014;2023-11-21T05:55:09;6.90;99.90
29363;DHT22;16349;53.672;10.014;2023-11-21T05:57:37;6.90;99.90
29363;DHT22;16349;53.672;10.014;2023-11-21T06:00:05;6.80;99.90
29363;DHT22;16349;53.672;10.014;2023-11-21T06:02:37;6.80;99.90
29363;DHT22;16349;53.672;10.014;2023-11-21T06:05:05;6.80;99.90
29363;DHT22;16349;53.672;10.014;2023-11-21T06:07:34;6.80;99.90
29363;DHT22;16349;53.672;10.014;2023-11-21T06:10:01;6.70;99.90
29363;DHT22;16349;53.672;10.014;2023-11-21T06:12:31;6.80;99.90
29363;DHT22;16349;53.672;10.014;2023-11-21T06:15:01;6.80;99.90
29363;DHT22;16349;53.672;10.014;2023-11-21T06:17:29;6.80;99.90
29363;DHT22;16349;53.672;10.014;2023-11-21T06:19:56;6.80;99.90
29363;DHT22;16349;53.672;10.014;2023-11-21T06:22:23;6.80;99.90
29363;DHT22;16349;53.672;10.014;2023-11-21T06:24:51;6.80;99.90
29363;DHT22;16349;53.672;10.014;2023-11-21T06:27:18;6.80;99.90
29363;DHT22;16349;53.672;10.014;2023-11-21T06:29:45;6.80;99.90
29363;DHT22;16349;53.672;10.014;2023-11-21T06:32:12;6.80;99.90
29363;DHT22;16349;53.672;10.014;2023-11-21T06:34:42;6.80;99.90
29363;DHT22;16349;53.672;10.014;2023-11-21T06:37:08;6.80;99.90
29363;DHT22;16349;53.672;10.014;2023-11-21T06:39:37;6.80;99.90
29363;DHT22;16349;53.672;10.014;2023-11-21T06:42:05;6.80;99.90
29363;DHT22;16349;53.672;10.014;2023-11-21T06:44:32;6.90;99.90
29363;DHT22;16349;53.672;10.014;2023-11-21T06:47:01;6.90;99.90
29363;DHT22;16349;53.672;10.014;2023-11-21T06:49:28;6.90;99.90
29363;DHT22;16349;53.672;10.014;2023-11-21T06:51:55;6.90;99.90
29363;DHT22;16349;53.672;10.014;2023-11-21T06:54:22;6.90;99.90
29363;DHT22;16349;53.672;10.014;2023-11-21T06:56:48;6.90;99.90
29363;DHT22;16349;53.672;10.014;2023-11-21T06:59:17;6.90;99.90
29363;DHT22;16349;53.672;10.014;2023-11-21T07:01:43;6.90;99.90
29363;DHT22;16349;53.672;10.014;2023-11-21T07:04:10;6.80;99.90
29363;DHT22;16349;53.672;10.014;2023-11-21T07:06:37;6.80;99.90
29363;DHT22;16349;53.672;10.014;2023-11-21T07:09:04;6.80;99.90
29363;DHT22;16349;53.672;10.014;2023-11-21T07:11:31;6.80;99.90
29363;DHT22;16349;53.672;10.014;2023-11-21T07:13:58;6.80;99.90
29363;DHT22;16349;53.672;10.014;2023-11-21T07:16:26;6.80;99.90
29363;DHT22;16349;53.672;10.014;2023-11-21T07:18:53;6.70;99.90
29363;DHT22;16349;53.672;10.014;2023-11-21T07:21:20;6.70;99.90
29363;DHT22;16349;53.672;10.014;2023-11-21T07:23:49;6.80;99.90
29363;DHT22;16349;53.672;10.014;2023-11-21T07:26:16;6.70;99.90
29363;DHT22;16349;53.672;10.014;2023-11-21T07:28:43;6.70;99.90
29363;DHT22;16349;53.672;10.014;2023-11-21T07:31:10;6.70;99.90
29363;DHT22;16349;53.672;10.014;2023-11-21T07:33:42;6.70;99.90
29363;DHT22;16349;53.672;10.014;2023-11-21T07:36:09;6.70;99.90
29363;DHT22;16349;53.672;10.014;2023-11-21T07:38:36;6.70;99.90
29363;DHT22;16349;53.672;10.014;2023-11-21T07:41:05;6.80;99.90
29363;DHT22;16349;53.672;10.014;2023-11-21T07:43:34;6.80;99.90
29363;DHT22;16349;53.672;10.014;2023-11-21T07:46:02;6.80;99.90
29363;DHT22;16349;53.672;10.014;2023-11-21T07:48:29;6.80;99.90
29363;DHT22;16349;53.672;10.014;2023-11-21T07:50:58;6.80;99.90
29363;DHT22;16349;53.672;10.014;2023-11-21T07:53:25;6.80;99.90
29363;DHT22;16349;53.672;10.014;2023-11-21T07:55:55;6.90;99.90
29363;DHT22;16349;53.672;10.014;2023-11-21T07:58:22;6.90;99.90
29363;DHT22;16349;53.672;10.014;2023-11-21T08:00:50;6.90;99.90
29363;DHT22;16349;53.672;10.014;2023-11-21T08:03:17;6.90;99.90
29363;DHT22;16349;53.672;10.014;2023-11-21T08:05:44;6.90;99.90
29363;DHT22;16349;53.672;10.014;2023-11-21T08:08:13;6.80;99.90
29363;DHT22;16349;53.672;10.014;2023-11-21T08:10:40;6.90;99.90
29363;DHT22;16349;53.672;10.014;2023-11-21T08:13:08;6.90;99.90
29363;DHT22;16349;53.672;10.014;2023-11-21T08:15:45;6.90;99.90
29363;DHT22;16349;53.672;10.014;2023-11-21T08:18:24;6.90;99.90
29363;DHT22;16349;53.672;10.014;2023-11-21T08:20:51;6.90;99.90
29363;DHT22;16349;53.672;10.014;2023-11-21T08:23:19;6.90;99.90
29363;DHT22;16349;53.672;10.014;2023-11-21T08:25:46;6.90;99.90
29363;DHT22;16349;53.672;10.014;2023-11-21T08:28:13;6.90;99.90
29363;DHT22;16349;53.672;10.014;2023-11-21T08:30:42;6.90;99.90
29363;DHT22;16349;53.672;10.014;2023-11-21T08:33:09;7.00;99.90
29363;DHT22;16349;53.672;10.014;2023-11-21T08:35:37;7.00;99.90
29363;DHT22;16349;53.672;10.014;2023-11-21T08:38:05;7.00;99.90
29363;DHT22;16349;53.672;10.014;2023-11-21T08:40:34;7.00;99.90
29363;DHT22;16349;53.672;10.014;2023-11-21T08:43:01;7.00;99.90
29363;DHT22;16349;53.672;10.014;2023-11-21T08:45:30;7.10;99.90
29363;DHT22;16349;53.672;10.014;2023-11-21T08:47:59;7.10;99.90
29363;DHT22;16349;53.672;10.014;2023-11-21T08:50:26;6.90;99.90
29363;DHT22;16349;53.672;10.014;2023-11-21T08:52:53;6.90;99.90
29363;DHT22;16349;53.672;10.014;2023-11-21T08:55:21;6.90;99.90
29363;DHT22;16349;53.672;10.014;2023-11-21T08:57:49;6.90;99.90
29363;DHT22;16349;53.672;10.014;2023-11-21T09:00:17;6.90;99.90
29363;DHT22;16349;53.672;10.014;2023-11-21T09:02:44;6.80;99.90
29363;DHT22;16349;53.672;10.014;2023-11-21T09:05:13;6.80;99.90
29363;DHT22;16349;53.672;10.014;2023-11-21T09:07:41;6.80;99.90
29363;DHT22;16349;53.672;10.014;2023-11-21T09:10:09;6.80;99.90
29363;DHT22;16349;53.672;10.014;2023-11-21T09:12:37;6.80;99.90
29363;DHT22;16349;53.672;10.014;2023-11-21T09:15:07;6.80;99.90
29363;DHT22;16349;53.672;10.014;2023-11-21T09:17:35;6.80;99.90
29363;DHT22;16349;53.672;10.014;2023-11-21T09:20:03;6.80;99.90
29363;DHT22;16349;53.672;10.014;2023-11-21T09:22:31;6.80;99.90
29363;DHT22;16349;53.672;10.014;2023-11-21T09:24:58;6.90;99.90
29363;DHT22;16349;53.672;10.014;2023-11-21T09:27:27;6.90;99.90
29363;DHT22;16349;53.672;10.014;2023-11-21T09:29:54;6.90;99.90
29363;DHT22;16349;53.672;10.014;2023-11-21T09:32:22;6.90;99.90
29363;DHT22;16349;53.672;10.014;2023-11-21T09:34:50;6.90;99.90
29363;DHT22;16349;53.672;10.014;2023-11-21T09:37:17;6.90;99.90
29363;DHT22;16349;53.672;10.014;2023-11-21T09:39:45;6.90;99.90
29363;DHT22;16349;53.672;10.014;2023-11-21T09:42:17;6.90;99.90
29363;DHT22;16349;53.672;10.014;2023-11-21T09:44:52;6.80;99.90
29363;DHT22;16349;53.672;10.014;2023-11-21T09:47:23;6.80;99.90
29363;DHT22;16349;53.672;10.014;2023-11-21T09:49:52;6.80;99.90
29363;DHT22;16349;53.672;10.014;2023-11-21T09:52:24;6.80;99.90
29363;DHT22;16349;53.672;10.014;2023-11-21T09:54:52;6.80;99.90
29363;DHT22;16349;53.672;10.014;2023-11-21T09:57:20;6.80;99.90
29363;DHT22;16349;53.672;10.014;2023-11-21T09:59:51;6.80;99.90
29363;DHT22;16349;53.672;10.014;2023-11-21T10:02:26;6.80;99.90
29363;DHT22;16349;53.672;10.014;2023-11-21T10:04:56;6.80;99.90
29363;DHT22;16349;53.672;10.014;2023-11-21T10:07:28;6.80;99.90
29363;DHT22;16349;53.672;10.014;2023-11-21T10:09:59;6.80;99.90
29363;DHT22;16349;53.672;10.014;2023-11-21T10:12:28;6.80;99.90
29363;DHT22;16349;53.672;10.014;2023-11-21T10:14:58;6.90;99.90
29363;DHT22;16349;53.672;10.014;2023-11-21T10:17:28;7.00;99.90
29363;DHT22;16349;53.672;10.014;2023-11-21T10:19:57;7.00;99.90
29363;DHT22;16349;53.672;10.014;2023-11-21T10:22:28;6.90;99.90
29363;DHT22;16349;53.672;10.014;2023-11-21T10:24:55;6.90;99.90
29363;DHT22;16349;53.672;10.014;2023-11-21T10:27:22;7.00;99.90
29363;DHT22;16349;53.672;10.014;2023-11-21T10:29:51;6.90;99.90
29363;DHT22;16349;53.672;10.014;2023-11-21T10:32:18;6.90;99.90
29363;DHT22;16349;53.672;10.014;2023-11-21T10:34:57;6.90;99.90
29363;DHT22;16349;53.672;10.014;2023-11-21T10:37:25;6.90;99.90
29363;DHT22;16349;53.672;10.014;2023-11-21T10:39:57;6.90;99.90
29363;DHT22;16349;53.672;10.014;2023-11-21T10:42:27;6.80;99.90
29363;DHT22;16349;53.672;10.014;2023-11-21T10:44:55;6.90;99.90
29363;DHT22;16349;53.672;10.014;2023-11-21T10:47:22;6.80;99.90
29363;DHT22;16349;53.672;10.014;2023-11-21T10:49:50;6.80;99.90
29363;DHT22;16349;53.672;10.014;2023-11-21T10:52:20;6.90;99.90
29363;DHT22;16349;53.672;10.014;2023-11-21T10:54:48;6.80;99.90
29363;DHT22;16349;53.672;10.014;2023-11-21T10:57:17;6.80;99.90
29363;DHT22;16349;53.672;10.014;2023-11-21T10:59:47;6.80;99.90
29363;DHT22;16349;53.672;10.014;2023-11-21T11:02:22;6.80;99.90
29363;DHT22;16349;53.672;10.014;2023-11-21T11:04:52;6.70;99.90
29363;DHT22;16349;53.672;10.014;2023-11-21T11:07:21;6.80;99.90
29363;DHT22;16349;53.672;10.014;2023-11-21T11:09:48;6.80;99.90
29363;DHT22;16349;53.672;10.014;2023-11-21T11:12:15;6.70;99.90
29363;DHT22;16349;53.672;10.014;2023-11-21T11:14:44;6.80;99.90
29363;DHT22;16349;53.672;10.014;2023-11-21T11:17:12;6.70;99.90
29363;DHT22;16349;53.672;10.014;2023-11-21T11:19:40;6.70;99.90
29363;DHT22;16349;53.672;10.014;2023-11-21T11:22:16;6.80;99.90
29363;DHT22;16349;53.672;10.014;2023-11-21T11:25:03;6.80;99.90
29363;DHT22;16349;53.672;10.014;2023-11-21T11:27:47;6.80;99.90
29363;DHT22;16349;53.672;10.014;2023-11-21T11:30:27;6.70;99.90
29363;DHT22;16349;53.672;10.014;2023-11-21T11:33:08;6.80;99.90
29363;DHT22;16349;53.672;10.014;2023-11-21T11:35:43;6.80;99.90
29363;DHT22;16349;53.672;10.014;2023-11-21T11:38:13;6.70;99.90
29363;DHT22;16349;53.672;10.014;2023-11-21T11:40:45;6.70;99.90
29363;DHT22;16349;53.672;10.014;2023-11-21T11:43:12;6.70;99.90
29363;DHT22;16349;53.672;10.014;2023-11-21T11:45:39;6.80;99.90
29363;DHT22;16349;53.672;10.014;2023-11-21T11:48:11;6.90;99.90
29363;DHT22;16349;53.672;10.014;2023-11-21T11:50:53;6.90;99.90
29363;DHT22;16349;53.672;10.014;2023-11-21T11:53:33;6.90;99.90
29363;DHT22;16349;53.672;10.014;2023-11-21T11:56:24;6.80;99.90
29363;DHT22;16349;53.672;10.014;2023-11-21T11:58:54;6.80;99.90
29363;DHT22;16349;53.672;10.014;2023-11-21T12:01:22;6.80;99.90
29363;DHT22;16349;53.672;10.014;2023-11-21T12:04:24;6.80;99.90
29363;DHT22;16349;53.672;10.014;2023-11-21T12:06:59;6.70;99.90
29363;DHT22;16349;53.672;10.014;2023-11-21T12:09:28;6.50;99.90
29363;DHT22;16349;53.672;10.014;2023-11-21T12:11:58;6.50;99.90
29363;DHT22;16349;53.672;10.014;2023-11-21T12:14:25;6.50;99.90
29363;DHT22;16349;53.672;10.014;2023-11-21T12:16:53;6.50;99.90
29363;DHT22;16349;53.672;10.014;2023-11-21T12:19:20;6.40;99.90
29363;DHT22;16349;53.672;10.014;2023-11-21T12:21:48;6.40;99.90
29363;DHT22;16349;53.672;10.014;2023-11-21T12:24:16;6.40;99.90
29363;DHT22;16349;53.672;10.014;2023-11-21T12:26:43;6.40;99.90
29363;DHT22;16349;53.672;10.014;2023-11-21T12:29:12;6.40;99.90
29363;DHT22;16349;53.672;10.014;2023-11-21T12:31:39;6.40;99.90
29363;DHT22;16349;53.672;10.014;2023-11-21T12:34:06;6.30;99.90
29363;DHT22;16349;53.672;10.014;2023-11-21T12:36:37;6.30;99.90
29363;DHT22;16349;53.672;10.014;2023-11-21T12:39:04;6.40;99.90
29363;DHT22;16349;53.672;10.014;2023-11-21T12:41:31;6.40;99.90
29363;DHT22;16349;53.672;10.014;2023-11-21T12:43:58;6.30;99.90
29363;DHT22;16349;53.672;10.014;2023-11-21T12:46:26;6.30;99.90
29363;DHT22;16349;53.672;10.014;2023-11-21T12:48:56;6.30;99.90
29363;DHT22;16349;53.672;10.014;2023-11-21T12:51:23;6.20;99.90
29363;DHT22;16349;53.672;10.014;2023-11-21T12:53:50;6.20;99.90
29363;DHT22;16349;53.672;10.014;2023-11-21T12:56:18;6.20;99.90
29363;DHT22;16349;53.672;10.014;2023-11-21T12:58:48;6.30;99.90
29363;DHT22;16349;53.672;10.014;2023-11-21T13:01:17;6.30;99.90
29363;DHT22;16349;53.672;10.014;2023-11-21T13:03:50;6.30;99.90
29363;DHT22;16349;53.672;10.014;2023-11-21T13:06:18;6.30;99.90
29363;DHT22;16349;53.672;10.014;2023-11-21T13:08:46;6.30;99.90
29363;DHT22;16349;53.672;10.014;2023-11-21T13:11:13;6.30;99.90
29363;DHT22;16349;53.672;10.014;2023-11-21T13:13:41;6.30;99.90
29363;DHT22;16349;53.672;10.014;2023-11-21T13:16:09;6.20;99.90
29363;DHT22;16349;53.672;10.014;2023-11-21T13:18:36;6.20;99.90
29363;DHT22;16349;53.672;10.014;2023-11-21T13:21:06;6.10;99.90
29363;DHT22;16349;53.672;10.014;2023-11-21T13:23:37;6.10;99.90
29363;DHT22;16349;53.672;10.014;2023-11-21T13:26:04;6.00;99.90
29363;DHT22;16349;53.672;10.014;2023-11-21T13:28:32;6.10;99.90
29363;DHT22;16349;53.672;10.014;2023-11-21T13:31:00;6.10;99.90
29363;DHT22;16349;53.672;10.014;2023-11-21T13:33:35;6.10;99.90
29363;DHT22;16349;53.672;10.014;2023-11-21T13:36:06;6.10;99.90
29363;DHT22;16349;53.672;10.014;2023-11-21T13:38:34;6.20;99.90
29363;DHT22;16349;53.672;10.014;2023-11-21T13:41:03;6.20;99.90
29363;DHT22;16349;53.672;10.014;2023-11-21T13:43:33;6.20;99.90
29363;DHT22;16349;53.672;10.014;2023-11-21T13:45:59;6.20;99.90
29363;DHT22;16349;53.672;10.014;2023-11-21T13:48:32;6.20;99.90
29363;DHT22;16349;53.672;10.014;2023-11-21T13:51:09;6.20;99.90
29363;DHT22;16349;53.672;10.014;2023-11-21T13:53:43;6.10;99.90
29363;DHT22;16349;53.672;10.014;2023-11-21T13:56:11;6.10;99.90
29363;DHT22;16349;53.672;10.014;2023-11-21T13:58:41;6.10;99.90
29363;DHT22;16349;53.672;10.014;2023-11-21T14:01:13;6.10;99.90
29363;DHT22;16349;53.672;10.014;2023-11-21T14:03:58;6.10;99.90
29363;DHT22;16349;53.672;10.014;2023-11-21T14:06:35;6.10;99.90
29363;DHT22;16349;53.672;10.014;2023-11-21T14:09:13;6.00;99.90
29363;DHT22;16349;53.672;10.014;2023-11-21T14:11:51;6.10;99.90
29363;DHT22;16349;53.672;10.014;2023-11-21T14:14:19;6.10;99.90
29363;DHT22;16349;53.672;10.014;2023-11-21T14:16:46;6.00;99.90
29363;DHT22;16349;53.672;10.014;2023-11-21T14:19:13;6.00;99.90
29363;DHT22;16349;53.672;10.014;2023-11-21T14:21:44;6.10;99.90
29363;DHT22;16349;53.672;10.014;2023-11-21T14:24:14;6.00;99.90
29363;DHT22;16349;53.672;10.014;2023-11-21T14:26:43;6.00;99.90
29363;DHT22;16349;53.672;10.014;2023-11-21T14:29:11;5.90;99.90
29363;DHT22;16349;53.672;10.014;2023-11-21T14:31:40;5.90;99.90
29363;DHT22;16349;53.672;10.014;2023-11-21T14:34:07;5.90;99.90
29363;DHT22;16349;53.672;10.014;2023-11-21T14:36:35;5.90;99.90
29363;DHT22;16349;53.672;10.014;2023-11-21T14:39:04;5.90;99.90
29363;DHT22;16349;53.672;10.014;2023-11-21T14:41:32;5.90;99.90
29363;DHT22;16349;53.672;10.014;2023-11-21T14:44:01;5.90;99.90
29363;DHT22;16349;53.672;10.014;2023-11-21T14:46:28;6.00;99.90
29363;DHT22;16349;53.672;10.014;2023-11-21T14:48:55;6.00;99.90
29363;DHT22;16349;53.672;10.014;2023-11-21T14:51:27;5.90;99.90
29363;DHT22;16349;53.672;10.014;2023-11-21T14:53:56;5.80;99.90
29363;DHT22;16349;53.672;10.014;2023-11-21T14:56:27;5.80;99.90
29363;DHT22;16349;53.672;10.014;2023-11-21T14:58:57;5.80;99.90
29363;DHT22;16349;53.672;10.014;2023-11-21T15:01:23;5.80;99.90
29363;DHT22;16349;53.672;10.014;2023-11-21T15:04:08;5.80;99.90
29363;DHT22;16349;53.672;10.014;2023-11-21T15:06:40;5.80;99.90
29363;DHT22;16349;53.672;10.014;2023-11-21T15:09:08;5.70;99.90
29363;DHT22;16349;53.672;10.014;2023-11-21T15:12:02;5.70;99.90
29363;DHT22;16349;53.672;10.014;2023-11-21T15:14:43;5.70;99.90
29363;DHT22;16349;53.672;10.014;2023-11-21T15:17:09;5.70;99.90
29363;DHT22;16349;53.672;10.014;2023-11-21T15:19:37;5.70;99.90
29363;DHT22;16349;53.672;10.014;2023-11-21T15:22:04;5.70;99.90
29363;DHT22;16349;53.672;10.014;2023-11-21T15:24:32;5.60;99.90
29363;DHT22;16349;53.672;10.014;2023-11-21T15:26:59;5.70;99.90
29363;DHT22;16349;53.672;10.014;2023-11-21T15:29:27;5.70;99.90
29363;DHT22;16349;53.672;10.014;2023-11-21T15:31:54;5.70;99.90
29363;DHT22;16349;53.672;10.014;2023-11-21T15:34:22;5.70;99.90
29363;DHT22;16349;53.672;10.014;2023-11-21T15:36:49;5.70;99.90
29363;DHT22;16349;53.672;10.014;2023-11-21T15:39:18;5.80;99.90